createdAt,value
2018-05-13T00:00:07.935Z,1005.52
2018-05-13T00:01:07.716Z,1005.49
2018-05-13T00:02:07.697Z,1005.51
2018-05-13T00:03:07.735Z,1005.49
2018-05-13T00:04:07.781Z,1005.48
2018-05-13T00:05:07.801Z,1005.50
2018-05-13T00:06:08.137Z,1005.48
2018-05-13T00:07:07.875Z,1005.45
2018-05-13T00:08:07.914Z,1005.46
2018-05-13T00:09:07.937Z,1005.45
2018-05-13T00:10:07.971Z,1005.50
2018-05-13T00:11:08.005Z,1005.47
2018-05-13T00:12:08.343Z,1005.49
2018-05-13T00:13:08.072Z,1005.50
2018-05-13T00:14:08.156Z,1005.49
2018-05-13T00:15:08.138Z,1005.47
2018-05-13T00:16:08.188Z,1005.46
2018-05-13T00:17:08.207Z,1005.47
2018-05-13T00:18:08.541Z,1005.44
2018-05-13T00:19:08.324Z,1005.45
2018-05-13T00:20:08.312Z,1005.45
2018-05-13T00:21:08.356Z,1005.51
2018-05-13T00:22:08.379Z,1005.49
2018-05-13T00:23:08.465Z,1005.52
2018-05-13T00:24:08.748Z,1005.52
2018-05-13T00:25:08.564Z,1005.55
2018-05-13T00:26:08.517Z,1005.57
2018-05-13T00:27:08.566Z,1005.57
2018-05-13T00:28:08.588Z,1005.57
2018-05-13T00:29:08.714Z,1005.56
2018-05-13T00:30:08.951Z,1005.57
2018-05-13T00:31:08.696Z,1005.52
2018-05-13T00:32:08.721Z,1005.50
2018-05-13T00:33:08.749Z,1005.51
2018-05-13T00:34:08.784Z,1005.49
2018-05-13T00:35:08.828Z,1005.51
2018-05-13T00:36:09.157Z,1005.51
2018-05-13T00:37:08.884Z,1005.54
2018-05-13T00:38:08.915Z,1005.54
2018-05-13T00:39:08.956Z,1005.53
2018-05-13T00:40:09.135Z,1005.54
2018-05-13T00:41:09.021Z,1005.55
2018-05-13T00:42:09.362Z,1005.55
2018-05-13T00:43:09.090Z,1005.56
2018-05-13T00:44:09.125Z,1005.51
2018-05-13T00:45:09.156Z,1005.52
2018-05-13T00:46:09.186Z,1005.51
2018-05-13T00:47:09.223Z,1005.52
2018-05-13T00:48:09.767Z,1005.51
2018-05-13T00:49:09.293Z,1005.55
2018-05-13T00:50:09.352Z,1005.56
2018-05-13T00:51:09.356Z,1005.54
2018-05-13T00:52:09.390Z,1005.55
2018-05-13T00:53:09.473Z,1005.53
2018-05-13T00:54:09.757Z,1005.52
2018-05-13T00:55:09.497Z,1005.53
2018-05-13T00:56:09.733Z,1005.52
2018-05-13T00:57:09.563Z,1005.49
2018-05-13T00:58:09.593Z,1005.53
2018-05-13T00:59:09.625Z,1005.50
2018-05-13T01:00:09.960Z,1005.51
2018-05-13T01:01:09.726Z,1005.45
2018-05-13T01:02:09.728Z,1005.42
2018-05-13T01:03:09.763Z,1005.44
2018-05-13T01:04:09.799Z,1005.50
2018-05-13T01:05:09.829Z,1005.50
2018-05-13T01:06:10.163Z,1005.44
2018-05-13T01:07:09.900Z,1005.44
2018-05-13T01:08:09.985Z,1005.44
2018-05-13T01:09:10.020Z,1005.44
2018-05-13T01:10:09.995Z,1005.44
2018-05-13T01:11:10.037Z,1005.50
2018-05-13T01:12:10.367Z,1005.51
2018-05-13T01:13:10.194Z,1005.66
2018-05-13T01:14:10.131Z,1005.66
2018-05-13T01:15:10.169Z,1005.66
2018-05-13T01:16:10.199Z,1005.63
2018-05-13T01:17:10.232Z,1005.53
2018-05-13T01:18:10.271Z,1005.52
2018-05-13T01:19:10.299Z,1005.53
2018-05-13T01:20:10.334Z,1005.60
2018-05-13T01:21:10.374Z,1005.62
2018-05-13T01:22:10.408Z,1005.55
2018-05-13T01:23:10.732Z,1005.59
2018-05-13T01:24:10.468Z,1005.69
2018-05-13T01:25:10.501Z,1005.71
2018-05-13T01:26:10.538Z,1005.64
2018-05-13T01:27:10.568Z,1005.63
2018-05-13T01:28:10.603Z,1005.69
2018-05-13T01:29:10.935Z,1005.71
2018-05-13T01:30:10.670Z,1005.67
2018-05-13T01:31:10.702Z,1005.66
2018-05-13T01:32:10.761Z,1005.64
2018-05-13T01:33:10.982Z,1005.64
2018-05-13T01:34:10.805Z,1005.65
2018-05-13T01:35:11.141Z,1005.69
2018-05-13T01:36:10.871Z,1005.68
2018-05-13T01:37:10.933Z,1005.66
2018-05-13T01:38:10.948Z,1005.62
2018-05-13T01:39:10.992Z,1005.55
2018-05-13T01:40:11.030Z,1005.54
2018-05-13T01:41:11.344Z,1005.56
2018-05-13T01:42:11.101Z,1005.58
2018-05-13T01:43:11.121Z,1005.53
2018-05-13T01:44:11.142Z,1005.51
2018-05-13T01:45:11.209Z,1005.50
2018-05-13T01:46:11.207Z,1005.50
2018-05-13T01:47:11.546Z,1005.52
2018-05-13T01:48:11.285Z,1005.51
2018-05-13T01:49:11.313Z,1005.51
2018-05-13T01:50:11.340Z,1005.51
2018-05-13T01:51:11.397Z,1005.49
2018-05-13T01:52:11.415Z,1005.56
2018-05-13T01:53:11.741Z,1005.56
2018-05-13T01:54:11.482Z,1005.57
2018-05-13T01:55:11.505Z,1005.61
2018-05-13T01:56:11.542Z,1005.60
2018-05-13T01:57:11.576Z,1005.63
2018-05-13T01:58:11.720Z,1005.60
2018-05-13T01:59:11.947Z,1005.58
2018-05-13T02:00:11.678Z,1005.57
2018-05-13T02:01:11.760Z,1005.57
2018-05-13T02:02:11.765Z,1005.56
2018-05-13T02:03:11.776Z,1005.56
2018-05-13T02:04:11.808Z,1005.56
2018-05-13T02:05:12.145Z,1005.51
2018-05-13T02:06:11.884Z,1005.54
2018-05-13T02:07:11.975Z,1005.55
2018-05-13T02:08:11.943Z,1005.58
2018-05-13T02:09:11.981Z,1005.53
2018-05-13T02:10:12.163Z,1005.51
2018-05-13T02:11:12.346Z,1005.54
2018-05-13T02:12:12.128Z,1005.51
2018-05-13T02:13:12.131Z,1005.51
2018-05-13T02:14:12.142Z,1005.49
2018-05-13T02:15:12.178Z,1005.50
2018-05-13T02:16:12.210Z,1005.52
2018-05-13T02:17:12.564Z,1005.49
2018-05-13T02:18:12.390Z,1005.48
2018-05-13T02:19:12.325Z,1005.52
2018-05-13T02:20:12.342Z,1005.57
2018-05-13T02:21:12.379Z,1005.60
2018-05-13T02:22:12.415Z,1005.58
2018-05-13T02:23:12.746Z,1005.60
2018-05-13T02:24:12.480Z,1005.58
2018-05-13T02:25:12.509Z,1005.53
2018-05-13T02:26:12.746Z,1005.55
2018-05-13T02:27:12.577Z,1005.53
2018-05-13T02:28:12.609Z,1005.55
2018-05-13T02:29:12.960Z,1005.57
2018-05-13T02:30:12.676Z,1005.63
2018-05-13T02:31:12.729Z,1005.64
2018-05-13T02:32:12.943Z,1005.68
2018-05-13T02:33:12.781Z,1005.66
2018-05-13T02:34:12.816Z,1005.68
2018-05-13T02:35:13.164Z,1005.70
2018-05-13T02:36:12.922Z,1005.74
2018-05-13T02:37:12.912Z,1005.77
2018-05-13T02:38:12.944Z,1005.82
2018-05-13T02:39:12.999Z,1005.82
2018-05-13T02:40:13.020Z,1005.88
2018-05-13T02:41:13.344Z,1005.88
2018-05-13T02:42:13.078Z,1005.86
2018-05-13T02:43:13.110Z,1005.80
2018-05-13T02:44:13.157Z,1005.73
2018-05-13T02:45:13.183Z,1005.70
2018-05-13T02:46:13.210Z,1005.74
2018-05-13T02:47:13.553Z,1005.68
2018-05-13T02:48:13.281Z,1005.66
2018-05-13T02:49:13.326Z,1005.61
2018-05-13T02:50:13.352Z,1005.57
2018-05-13T02:51:13.395Z,1005.49
2018-05-13T02:52:13.514Z,1005.53
2018-05-13T02:53:13.752Z,1005.59
2018-05-13T02:54:13.491Z,1005.66
2018-05-13T02:55:13.533Z,1005.69
2018-05-13T02:56:13.549Z,1005.77
2018-05-13T02:57:13.616Z,1005.80
2018-05-13T02:58:13.612Z,1005.81
2018-05-13T02:59:13.997Z,1005.82
2018-05-13T03:00:13.685Z,1005.77
2018-05-13T03:01:13.820Z,1005.71
2018-05-13T03:02:14.137Z,1005.72
2018-05-13T03:03:13.791Z,1005.75
2018-05-13T03:04:13.813Z,1005.78
2018-05-13T03:05:14.144Z,1005.81
2018-05-13T03:06:13.878Z,1005.89
2018-05-13T03:07:13.932Z,1005.90
2018-05-13T03:08:13.952Z,1005.89
2018-05-13T03:09:13.984Z,1005.91
2018-05-13T03:10:14.015Z,1005.92
2018-05-13T03:11:14.351Z,1005.89
2018-05-13T03:12:14.079Z,1005.87
2018-05-13T03:13:14.117Z,1005.87
2018-05-13T03:14:14.154Z,1005.91
2018-05-13T03:15:14.200Z,1005.83
2018-05-13T03:16:14.428Z,1005.90
2018-05-13T03:17:14.545Z,1005.91
2018-05-13T03:18:14.286Z,1005.90
2018-05-13T03:19:14.318Z,1005.89
2018-05-13T03:20:14.344Z,1005.88
2018-05-13T03:21:14.444Z,1005.85
2018-05-13T03:22:14.587Z,1005.84
2018-05-13T03:23:14.763Z,1005.88
2018-05-13T03:24:14.488Z,1005.86
2018-05-13T03:25:14.577Z,1005.86
2018-05-13T03:26:14.644Z,1005.80
2018-05-13T03:27:14.578Z,1005.79
2018-05-13T03:28:14.610Z,1005.77
2018-05-13T03:29:14.955Z,1005.74
2018-05-13T03:30:14.679Z,1005.71
2018-05-13T03:31:14.718Z,1005.68
2018-05-13T03:32:14.756Z,1005.80
2018-05-13T03:33:14.786Z,1005.79
2018-05-13T03:34:14.826Z,1005.80
2018-05-13T03:35:15.174Z,1005.81
2018-05-13T03:36:14.943Z,1005.80
2018-05-13T03:37:14.912Z,1005.80
2018-05-13T03:38:14.965Z,1005.79
2018-05-13T03:39:14.976Z,1005.78
2018-05-13T03:40:15.108Z,1005.83
2018-05-13T03:42:15.513Z,1005.86
2018-05-13T03:43:15.112Z,1005.84
2018-05-13T03:44:15.161Z,1005.87
2018-05-13T03:45:15.195Z,1005.82
2018-05-13T03:46:15.298Z,1005.90
2018-05-13T03:47:15.245Z,1005.82
2018-05-13T03:48:15.577Z,1005.85
2018-05-13T03:49:15.323Z,1005.82
2018-05-13T03:50:15.360Z,1005.83
2018-05-13T03:51:15.405Z,1005.87
2018-05-13T03:52:15.413Z,1005.88
2018-05-13T03:53:15.449Z,1005.89
2018-05-13T03:54:15.798Z,1005.86
2018-05-13T03:55:15.608Z,1005.86
2018-05-13T03:56:15.548Z,1005.87
2018-05-13T03:57:15.596Z,1005.88
2018-05-13T03:58:15.611Z,1005.89
2018-05-13T03:59:15.645Z,1005.91
2018-05-13T04:00:15.689Z,1005.92
2018-05-13T04:01:15.715Z,1005.95
2018-05-13T04:02:15.893Z,1005.95
2018-05-13T04:03:15.778Z,1005.95
2018-05-13T04:04:15.818Z,1006.00
2018-05-13T04:05:16.145Z,1006.06
2018-05-13T04:06:15.899Z,1006.01
2018-05-13T04:07:15.921Z,1006.03
2018-05-13T04:08:15.956Z,1006.04
2018-05-13T04:09:15.980Z,1006.09
2018-05-13T04:10:16.010Z,1005.99
2018-05-13T04:11:16.346Z,1006.00
2018-05-13T04:12:16.245Z,1006.04
2018-05-13T04:13:16.163Z,1006.04
2018-05-13T04:14:16.168Z,1006.03
2018-05-13T04:15:16.194Z,1006.08
2018-05-13T04:16:16.217Z,1006.04
2018-05-13T04:17:16.545Z,1006.01
2018-05-13T04:18:16.276Z,1006.10
2018-05-13T04:19:16.313Z,1006.06
2018-05-13T04:20:16.390Z,1006.04
2018-05-13T04:21:16.377Z,1006.07
2018-05-13T04:22:16.468Z,1006.04
2018-05-13T04:23:16.745Z,1005.99
2018-05-13T04:24:16.475Z,1006.05
2018-05-13T04:25:16.679Z,1006.04
2018-05-13T04:26:16.544Z,1006.09
2018-05-13T04:27:16.601Z,1006.06
2018-05-13T04:28:16.618Z,1006.10
2018-05-13T04:29:16.949Z,1006.15
2018-05-13T04:30:16.748Z,1006.19
2018-05-13T04:31:16.715Z,1006.15
2018-05-13T04:32:16.751Z,1006.13
2018-05-13T04:33:16.908Z,1006.10
2018-05-13T04:34:16.813Z,1006.07
2018-05-13T04:35:17.174Z,1006.04
2018-05-13T04:36:16.886Z,1005.98
2018-05-13T04:37:16.921Z,1005.95
2018-05-13T04:38:16.947Z,1005.91
2018-05-13T04:39:16.983Z,1005.86
2018-05-13T04:40:17.012Z,1005.87
2018-05-13T04:41:17.357Z,1005.89
2018-05-13T04:42:17.105Z,1005.89
2018-05-13T04:43:17.158Z,1005.94
2018-05-13T04:44:17.446Z,1005.92
2018-05-13T04:45:17.181Z,1005.90
2018-05-13T04:46:17.218Z,1005.86
2018-05-13T04:47:17.541Z,1005.87
2018-05-13T04:48:17.281Z,1005.83
2018-05-13T04:49:17.325Z,1005.82
2018-05-13T04:50:17.368Z,1005.81
2018-05-13T04:51:17.387Z,1005.79
2018-05-13T04:52:17.407Z,1005.80
2018-05-13T04:53:17.750Z,1005.81
2018-05-13T04:54:17.541Z,1005.82
2018-05-13T04:55:17.684Z,1005.84
2018-05-13T04:56:17.562Z,1005.82
2018-05-13T04:57:17.582Z,1005.84
2018-05-13T04:58:17.616Z,1005.87
2018-05-13T04:59:17.946Z,1005.87
2018-05-13T05:00:17.689Z,1005.89
2018-05-13T05:01:17.711Z,1005.92
2018-05-13T05:02:17.888Z,1005.91
2018-05-13T05:03:17.778Z,1005.90
2018-05-13T05:04:17.816Z,1005.91
2018-05-13T05:05:18.183Z,1005.91
2018-05-13T05:06:17.881Z,1005.96
2018-05-13T05:07:17.917Z,1005.98
2018-05-13T05:08:18.019Z,1006.02
2018-05-13T05:09:18.028Z,1006.05
2018-05-13T05:10:18.020Z,1006.07
2018-05-13T05:11:18.361Z,1006.10
2018-05-13T05:12:18.078Z,1006.11
2018-05-13T05:13:18.119Z,1006.12
2018-05-13T05:14:18.143Z,1006.18
2018-05-13T05:15:18.184Z,1006.26
2018-05-13T05:16:18.241Z,1006.25
2018-05-13T05:17:18.579Z,1006.36
2018-05-13T05:18:18.486Z,1006.39
2018-05-13T05:19:18.314Z,1006.43
2018-05-13T05:20:18.356Z,1006.47
2018-05-13T05:21:18.411Z,1006.51
2018-05-13T05:22:18.413Z,1006.58
2018-05-13T05:23:18.760Z,1006.57
2018-05-13T05:24:18.490Z,1006.60
2018-05-13T05:25:18.547Z,1006.65
2018-05-13T05:26:18.552Z,1006.66
2018-05-13T05:27:18.581Z,1006.65
2018-05-13T05:28:18.759Z,1006.66
2018-05-13T05:29:18.947Z,1006.72
2018-05-13T05:30:18.686Z,1006.72
2018-05-13T05:31:18.710Z,1006.74
2018-05-13T05:32:18.743Z,1006.79
2018-05-13T05:33:18.781Z,1006.80
2018-05-13T05:34:18.814Z,1006.81
2018-05-13T05:35:19.148Z,1006.82
2018-05-13T05:36:18.892Z,1006.86
2018-05-13T05:37:18.918Z,1006.87
2018-05-13T05:38:18.968Z,1006.92
2018-05-13T05:39:18.997Z,1006.90
2018-05-13T05:40:19.020Z,1006.93
2018-05-13T05:41:19.367Z,1006.95
2018-05-13T05:42:19.077Z,1006.89
2018-05-13T05:43:19.110Z,1006.90
2018-05-13T05:44:19.158Z,1006.87
2018-05-13T05:45:19.181Z,1006.87
2018-05-13T05:46:19.218Z,1006.87
2018-05-13T05:47:19.550Z,1006.91
2018-05-13T05:48:19.300Z,1006.90
2018-05-13T05:49:19.318Z,1006.94
2018-05-13T05:50:19.365Z,1006.94
2018-05-13T05:51:19.389Z,1006.97
2018-05-13T05:52:19.423Z,1007.03
2018-05-13T05:53:19.747Z,1007.01
2018-05-13T05:54:19.486Z,1007.07
2018-05-13T05:55:19.556Z,1007.07
2018-05-13T05:56:19.547Z,1007.10
2018-05-13T05:57:19.581Z,1007.15
2018-05-13T05:58:19.621Z,1007.13
2018-05-13T05:59:19.952Z,1007.13
2018-05-13T06:00:19.683Z,1007.23
2018-05-13T06:01:19.720Z,1007.23
2018-05-13T06:02:19.746Z,1007.29
2018-05-13T06:03:19.888Z,1007.33
2018-05-13T06:04:19.817Z,1007.37
2018-05-13T06:05:20.155Z,1007.40
2018-05-13T06:06:19.881Z,1007.45
2018-05-13T06:07:19.925Z,1007.48
2018-05-13T06:08:19.951Z,1007.43
2018-05-13T06:09:19.982Z,1007.45
2018-05-13T06:10:20.020Z,1007.47
2018-05-13T06:11:20.358Z,1007.51
2018-05-13T06:12:20.114Z,1007.58
2018-05-13T06:13:20.117Z,1007.59
2018-05-13T06:14:20.145Z,1007.58
2018-05-13T06:15:20.333Z,1007.52
2018-05-13T06:16:20.220Z,1007.49
2018-05-13T06:17:20.557Z,1007.43
2018-05-13T06:18:20.314Z,1007.32
2018-05-13T06:19:20.343Z,1007.30
2018-05-13T06:20:20.389Z,1007.27
2018-05-13T06:21:20.387Z,1007.29
2018-05-13T06:22:20.416Z,1007.35
2018-05-13T06:23:20.749Z,1007.35
2018-05-13T06:24:20.495Z,1007.26
2018-05-13T06:25:20.607Z,1007.18
2018-05-13T06:26:20.558Z,1007.16
2018-05-13T06:27:20.584Z,1007.13
2018-05-13T06:28:20.624Z,1007.13
2018-05-13T06:29:20.959Z,1007.11
2018-05-13T06:30:20.702Z,1007.08
2018-05-13T06:31:20.776Z,1007.06
2018-05-13T06:32:20.751Z,1007.07
2018-05-13T06:33:20.802Z,1007.08
2018-05-13T06:34:20.819Z,1007.07
2018-05-13T06:35:21.152Z,1007.03
2018-05-13T06:36:20.897Z,1007.09
2018-05-13T06:37:20.959Z,1007.10
2018-05-13T06:38:20.967Z,1007.13
2018-05-13T06:39:20.988Z,1007.13
2018-05-13T06:40:21.225Z,1007.18
2018-05-13T06:41:21.090Z,1007.21
2018-05-13T06:42:21.091Z,1007.24
2018-05-13T06:43:21.127Z,1007.23
2018-05-13T06:44:21.157Z,1007.27
2018-05-13T06:45:21.343Z,1007.26
2018-05-13T06:46:21.530Z,1007.23
2018-05-13T06:47:21.277Z,1007.21
2018-05-13T06:48:21.290Z,1007.19
2018-05-13T06:49:21.335Z,1007.15
2018-05-13T06:50:21.366Z,1007.18
2018-05-13T06:51:21.474Z,1007.15
2018-05-13T06:52:21.732Z,1007.09
2018-05-13T06:53:21.465Z,1007.04
2018-05-13T06:54:21.501Z,1007.06
2018-05-13T06:55:21.539Z,1007.05
2018-05-13T06:56:21.579Z,1006.99
2018-05-13T06:57:21.605Z,1007.02
2018-05-13T06:58:21.977Z,1007.03
2018-05-13T06:59:21.697Z,1007.04
2018-05-13T07:00:21.707Z,1007.04
2018-05-13T07:01:21.727Z,1007.17
2018-05-13T07:02:21.765Z,1007.14
2018-05-13T07:03:21.817Z,1007.20
2018-05-13T07:04:22.243Z,1007.30
2018-05-13T07:05:21.923Z,1007.40
2018-05-13T07:06:21.906Z,1007.39
2018-05-13T07:07:21.932Z,1007.43
2018-05-13T07:08:21.970Z,1007.46
2018-05-13T07:09:21.995Z,1007.41
2018-05-13T07:10:22.496Z,1007.37
2018-05-13T07:11:22.070Z,1007.32
2018-05-13T07:12:22.098Z,1007.18
2018-05-13T07:13:22.136Z,1007.24
2018-05-13T07:14:22.221Z,1007.30
2018-05-13T07:15:22.233Z,1007.34
2018-05-13T07:16:22.623Z,1007.47
2018-05-13T07:17:22.269Z,1007.58
2018-05-13T07:18:22.355Z,1007.63
2018-05-13T07:19:22.390Z,1007.51
2018-05-13T07:20:22.409Z,1007.42
2018-05-13T07:21:22.409Z,1007.31
2018-05-13T07:22:22.875Z,1007.34
2018-05-13T07:23:22.481Z,1007.43
2018-05-13T07:24:22.525Z,1007.49
2018-05-13T07:25:22.571Z,1007.59
2018-05-13T07:26:22.568Z,1007.57
2018-05-13T07:27:22.602Z,1007.56
2018-05-13T07:28:22.935Z,1007.54
2018-05-13T07:29:22.676Z,1007.54
2018-05-13T07:30:22.756Z,1007.59
2018-05-13T07:31:22.744Z,1007.64
2018-05-13T07:32:22.773Z,1007.69
2018-05-13T07:33:22.881Z,1007.71
2018-05-13T07:34:23.212Z,1007.77
2018-05-13T07:35:22.988Z,1007.73
2018-05-13T07:36:22.916Z,1007.73
2018-05-13T07:37:22.939Z,1007.71
2018-05-13T07:38:22.979Z,1007.70
2018-05-13T07:39:23.024Z,1007.70
2018-05-13T07:40:23.426Z,1007.71
2018-05-13T07:41:23.116Z,1007.79
2018-05-13T07:42:23.115Z,1007.93
2018-05-13T07:43:23.172Z,1008.05
2018-05-13T07:44:23.182Z,1008.10
2018-05-13T07:45:23.270Z,1008.17
2018-05-13T07:46:23.534Z,1008.13
2018-05-13T07:47:23.286Z,1008.24
2018-05-13T07:48:23.314Z,1008.26
2018-05-13T07:49:23.375Z,1008.25
2018-05-13T07:50:23.402Z,1008.28
2018-05-13T07:51:23.513Z,1008.29
2018-05-13T07:52:23.737Z,1008.28
2018-05-13T07:53:23.474Z,1008.24
2018-05-13T07:54:23.519Z,1008.21
2018-05-13T07:55:23.847Z,1008.11
2018-05-13T07:56:23.574Z,1008.01
2018-05-13T07:57:23.615Z,1007.93
2018-05-13T07:58:23.957Z,1007.86
2018-05-13T07:59:23.664Z,1007.81
2018-05-13T08:00:23.699Z,1007.80
2018-05-13T08:01:23.942Z,1007.88
2018-05-13T08:02:23.796Z,1007.82
2018-05-13T08:03:23.798Z,1007.79
2018-05-13T08:04:24.138Z,1007.80
2018-05-13T08:05:23.870Z,1007.78
2018-05-13T08:06:23.896Z,1007.84
2018-05-13T08:07:23.933Z,1007.85
2018-05-13T08:08:23.964Z,1007.90
2018-05-13T08:09:24.005Z,1007.94
2018-05-13T08:10:24.330Z,1008.09
2018-05-13T08:11:24.070Z,1008.16
2018-05-13T08:12:24.096Z,1008.24
2018-05-13T08:13:24.137Z,1008.25
2018-05-13T08:14:24.166Z,1008.23
2018-05-13T08:15:24.203Z,1008.23
2018-05-13T08:16:24.530Z,1008.21
2018-05-13T08:17:24.372Z,1008.08
2018-05-13T08:18:24.303Z,1008.00
2018-05-13T08:19:24.349Z,1007.98
2018-05-13T08:20:24.536Z,1007.90
2018-05-13T08:21:24.455Z,1007.89
2018-05-13T08:22:24.729Z,1007.90
2018-05-13T08:23:24.495Z,1007.87
2018-05-13T08:24:24.501Z,1007.89
2018-05-13T08:25:24.601Z,1007.90
2018-05-13T08:26:24.570Z,1007.92
2018-05-13T08:27:26.755Z,1007.97
2018-05-13T08:28:24.989Z,1007.96
2018-05-13T08:29:24.683Z,1007.94
2018-05-13T08:30:24.692Z,1007.97
2018-05-13T08:31:24.739Z,1007.99
2018-05-13T08:32:24.770Z,1008.01
2018-05-13T08:33:24.812Z,1008.04
2018-05-13T08:34:25.248Z,1008.00
2018-05-13T08:35:24.859Z,1007.97
2018-05-13T08:36:24.904Z,1007.90
2018-05-13T08:37:24.976Z,1007.76
2018-05-13T08:38:24.969Z,1007.72
2018-05-13T08:39:24.992Z,1007.64
2018-05-13T08:40:25.329Z,1007.59
2018-05-13T08:41:25.062Z,1007.47
2018-05-13T08:42:25.092Z,1007.38
2018-05-13T08:43:25.125Z,1007.36
2018-05-13T08:44:25.166Z,1007.42
2018-05-13T08:45:25.190Z,1007.52
2018-05-13T08:46:25.532Z,1007.57
2018-05-13T08:47:25.253Z,1007.67
2018-05-13T08:48:25.334Z,1007.78
2018-05-13T08:49:25.326Z,1007.86
2018-05-13T08:50:25.353Z,1007.95
2018-05-13T08:51:25.400Z,1008.07
2018-05-13T08:52:25.723Z,1008.10
2018-05-13T08:53:25.454Z,1008.12
2018-05-13T08:54:25.508Z,1008.16
2018-05-13T08:55:25.520Z,1008.22
2018-05-13T08:56:25.561Z,1008.20
2018-05-13T08:57:25.592Z,1008.27
2018-05-13T08:58:25.921Z,1008.25
2018-05-13T08:59:25.661Z,1008.26
2018-05-13T09:00:25.690Z,1008.27
2018-05-13T09:01:25.751Z,1008.28
2018-05-13T09:02:25.750Z,1008.22
2018-05-13T09:03:25.790Z,1008.21
2018-05-13T09:04:26.117Z,1008.19
2018-05-13T09:05:25.859Z,1008.19
2018-05-13T09:06:25.881Z,1008.16
2018-05-13T09:07:25.972Z,1008.09
2018-05-13T09:08:26.023Z,1008.10
2018-05-13T09:09:25.985Z,1008.10
2018-05-13T09:10:26.311Z,1008.14
2018-05-13T09:11:26.049Z,1008.14
2018-05-13T09:12:26.082Z,1008.17
2018-05-13T09:13:26.122Z,1008.15
2018-05-13T09:14:26.271Z,1008.19
2018-05-13T09:15:26.182Z,1008.21
2018-05-13T09:16:26.507Z,1008.25
2018-05-13T09:17:26.271Z,1008.25
2018-05-13T09:18:26.267Z,1008.18
2018-05-13T09:19:26.303Z,1008.19
2018-05-13T09:20:26.334Z,1008.14
2018-05-13T09:21:26.369Z,1008.13
2018-05-13T09:23:26.434Z,1008.16
2018-05-13T09:24:26.895Z,1008.21
2018-05-13T09:25:26.503Z,1008.19
2018-05-13T09:26:26.542Z,1008.18
2018-05-13T09:27:26.573Z,1008.22
2018-05-13T09:28:26.901Z,1008.20
2018-05-13T09:29:26.899Z,1008.28
2018-05-13T09:30:26.664Z,1008.32
2018-05-13T09:31:26.702Z,1008.34
2018-05-13T09:32:26.734Z,1008.42
2018-05-13T09:33:26.768Z,1008.44
2018-05-13T09:34:27.097Z,1008.47
2018-05-13T09:35:26.841Z,1008.49
2018-05-13T09:36:26.906Z,1008.46
2018-05-13T09:37:26.897Z,1008.45
2018-05-13T09:38:26.929Z,1008.48
2018-05-13T09:39:27.010Z,1008.40
2018-05-13T09:40:27.345Z,1008.41
2018-05-13T09:41:27.021Z,1008.39
2018-05-13T09:42:27.060Z,1008.45
2018-05-13T09:43:27.090Z,1008.45
2018-05-13T09:44:27.129Z,1008.52
2018-05-13T09:45:27.203Z,1008.50
2018-05-13T09:46:27.481Z,1008.48
2018-05-13T09:47:27.220Z,1008.54
2018-05-13T09:48:27.266Z,1008.49
2018-05-13T09:49:27.286Z,1008.57
2018-05-13T09:50:27.440Z,1008.47
2018-05-13T09:51:27.358Z,1008.50
2018-05-13T09:52:27.681Z,1008.46
2018-05-13T09:53:27.429Z,1008.44
2018-05-13T09:54:27.470Z,1008.38
2018-05-13T09:55:27.481Z,1008.39
2018-05-13T09:56:27.526Z,1008.38
2018-05-13T09:57:27.541Z,1008.42
2018-05-13T09:58:27.866Z,1008.38
2018-05-13T09:59:27.605Z,1008.43
2018-05-13T10:00:27.670Z,1008.39
2018-05-13T10:01:27.717Z,1008.41
2018-05-13T10:02:27.717Z,1008.39
2018-05-13T10:03:27.946Z,1008.43
2018-05-13T10:04:28.106Z,1008.43
2018-05-13T10:05:27.808Z,1008.41
2018-05-13T10:06:27.907Z,1008.39
2018-05-13T10:07:28.338Z,1008.39
2018-05-13T10:08:27.934Z,1008.40
2018-05-13T10:09:28.069Z,1008.41
2018-05-13T10:10:28.374Z,1008.37
2018-05-13T10:11:28.034Z,1008.32
2018-05-13T10:12:28.058Z,1008.29
2018-05-13T10:13:28.242Z,1008.28
2018-05-13T10:14:28.192Z,1008.23
2018-05-13T10:15:28.289Z,1008.28
2018-05-13T10:16:28.504Z,1008.25
2018-05-13T10:17:28.242Z,1008.31
2018-05-13T10:18:28.259Z,1008.29
2018-05-13T10:19:28.294Z,1008.24
2018-05-13T10:20:28.338Z,1008.24
2018-05-13T10:21:28.332Z,1008.22
2018-05-13T10:22:28.697Z,1008.23
2018-05-13T10:23:28.417Z,1008.23
2018-05-13T10:24:28.462Z,1008.25
2018-05-13T10:25:28.500Z,1008.27
2018-05-13T10:26:28.725Z,1008.21
2018-05-13T10:27:28.601Z,1008.27
2018-05-13T10:28:28.863Z,1008.27
2018-05-13T10:29:28.665Z,1008.28
2018-05-13T10:30:28.638Z,1008.31
2018-05-13T10:31:28.739Z,1008.36
2018-05-13T10:32:28.694Z,1008.39
2018-05-13T10:33:28.699Z,1008.38
2018-05-13T10:34:29.048Z,1008.40
2018-05-13T10:35:28.834Z,1008.38
2018-05-13T10:36:29.051Z,1008.43
2018-05-13T10:37:28.899Z,1008.46
2018-05-13T10:38:28.907Z,1008.52
2018-05-13T10:39:28.934Z,1008.54
2018-05-13T10:40:29.234Z,1008.50
2018-05-13T10:41:28.995Z,1008.56
2018-05-13T10:42:29.452Z,1008.53
2018-05-13T10:43:29.055Z,1008.53
2018-05-13T10:44:29.056Z,1008.49
2018-05-13T10:45:29.110Z,1008.50
2018-05-13T10:46:29.521Z,1008.50
2018-05-13T10:47:29.205Z,1008.48
2018-05-13T10:48:29.254Z,1008.48
2018-05-13T10:49:29.264Z,1008.47
2018-05-13T10:50:29.387Z,1008.53
2018-05-13T10:51:29.304Z,1008.48
2018-05-13T10:52:29.643Z,1008.53
2018-05-13T10:53:29.446Z,1008.53
2018-05-13T10:54:29.444Z,1008.51
2018-05-13T10:55:29.476Z,1008.57
2018-05-13T10:56:29.586Z,1008.57
2018-05-13T10:57:29.542Z,1008.53
2018-05-13T10:58:30.008Z,1008.50
2018-05-13T10:59:29.570Z,1008.52
2018-05-13T11:00:29.600Z,1008.46
2018-05-13T11:01:29.686Z,1008.39
2018-05-13T11:02:29.721Z,1008.41
2018-05-13T11:03:29.798Z,1008.40
2018-05-13T11:04:30.028Z,1008.42
2018-05-13T11:05:29.761Z,1008.40
2018-05-13T11:06:30.790Z,1008.38
2018-05-13T11:07:29.826Z,1008.32
2018-05-13T11:08:29.932Z,1008.34
2018-05-13T11:09:29.930Z,1008.29
2018-05-13T11:10:30.387Z,1008.31
2018-05-13T11:11:29.977Z,1008.31
2018-05-13T11:12:29.996Z,1008.30
2018-05-13T11:13:30.037Z,1008.31
2018-05-13T11:14:30.080Z,1008.37
2018-05-13T11:15:30.112Z,1008.32
2018-05-13T11:16:31.284Z,1008.38
2018-05-13T11:17:30.226Z,1008.34
2018-05-13T11:18:30.253Z,1008.35
2018-05-13T11:19:30.247Z,1008.37
2018-05-13T11:20:30.448Z,1008.38
2018-05-13T11:21:30.395Z,1008.41
2018-05-13T11:22:30.624Z,1008.45
2018-05-13T11:23:30.364Z,1008.51
2018-05-13T11:24:30.403Z,1008.49
2018-05-13T11:25:30.517Z,1008.50
2018-05-13T11:26:30.443Z,1008.49
2018-05-13T11:27:30.483Z,1008.50
2018-05-13T11:28:30.842Z,1008.54
2018-05-13T11:29:30.546Z,1008.54
2018-05-13T11:30:30.644Z,1008.56
2018-05-13T11:31:30.706Z,1008.54
2018-05-13T11:32:30.630Z,1008.54
2018-05-13T11:33:30.897Z,1008.53
2018-05-13T11:34:31.184Z,1008.53
2018-05-13T11:35:30.742Z,1008.54
2018-05-13T11:36:30.806Z,1008.60
2018-05-13T11:37:30.812Z,1008.62
2018-05-13T11:38:30.907Z,1008.68
2018-05-13T11:39:30.899Z,1008.67
2018-05-13T11:40:31.327Z,1008.67
2018-05-13T11:41:30.949Z,1008.66
2018-05-13T11:42:31.062Z,1008.63
2018-05-13T11:43:31.013Z,1008.64
2018-05-13T11:44:31.107Z,1008.62
2018-05-13T11:45:31.075Z,1008.60
2018-05-13T11:46:31.410Z,1008.55
2018-05-13T11:47:31.195Z,1008.54
2018-05-13T11:48:31.182Z,1008.52
2018-05-13T11:49:31.264Z,1008.50
2018-05-13T11:50:31.234Z,1008.49
2018-05-13T11:51:31.333Z,1008.45
2018-05-13T11:52:31.817Z,1008.46
2018-05-13T11:53:31.354Z,1008.42
2018-05-13T11:54:31.386Z,1008.48
2018-05-13T11:55:31.413Z,1008.43
2018-05-13T11:56:31.461Z,1008.38
2018-05-13T11:57:31.461Z,1008.38
2018-05-13T11:58:31.795Z,1008.31
2018-05-13T11:59:31.576Z,1008.24
2018-05-13T12:00:31.651Z,1008.22
2018-05-13T12:01:31.609Z,1008.17
2018-05-13T12:02:31.790Z,1008.18
2018-05-13T12:03:31.778Z,1008.16
2018-05-13T12:04:32.016Z,1008.19
2018-05-13T12:05:31.739Z,1008.18
2018-05-13T12:06:31.817Z,1008.31
2018-05-13T12:07:31.800Z,1008.33